createdAt,value
2019-03-18T19:24:23.749Z,23.39
2019-03-18T19:28:20.487Z,22.69
2019-03-18T19:31:02.089Z,20.37
2019-03-18T19:33:31.644Z,16.36
2019-03-18T19:36:23.277Z,12.87
2019-03-18T19:38:53.355Z,10.76
2019-03-18T19:41:24.118Z,9.28
2019-03-18T19:43:53.007Z,8.07
2019-03-18T19:49:24.690Z,6.68
2019-03-18T19:51:55.481Z,6.12
2019-03-18T19:54:23.399Z,5.91
2019-03-18T19:56:55.403Z,5.82
2019-03-18T19:59:33.238Z,5.73
2019-03-18T20:02:01.409Z,5.35
2019-03-18T20:04:31.710Z,5.45
2019-03-18T20:07:00.024Z,5.31
2019-03-18T20:09:28.022Z,5.19
2019-03-18T20:11:56.104Z,5.19
2019-03-18T20:14:27.904Z,5.16
2019-03-18T20:16:57.263Z,5.18
2019-03-18T20:19:25.887Z,5.05
2019-03-18T20:21:54.094Z,4.99
2019-03-18T20:24:24.111Z,4.93
2019-03-18T20:26:54.026Z,4.83
2019-03-18T20:29:24.397Z,4.84
2019-03-18T20:31:52.367Z,4.76
2019-03-18T20:34:21.557Z,4.84
2019-03-18T20:36:49.510Z,4.82
2019-03-18T20:39:24.818Z,4.73
2019-03-18T20:41:52.933Z,4.70
2019-03-18T20:44:20.925Z,4.81
2019-03-18T20:46:50.860Z,4.78
2019-03-18T20:49:19.142Z,4.65
2019-03-18T20:51:52.400Z,4.51
2019-03-18T20:54:20.331Z,4.66
2019-03-18T20:56:48.551Z,4.68
2019-03-18T20:59:16.461Z,4.72
2019-03-18T21:01:44.883Z,4.67
2019-03-18T21:04:12.747Z,4.73
2019-03-18T21:06:40.892Z,4.82
2019-03-18T21:09:08.766Z,4.79
2019-03-18T21:11:39.825Z,4.78
2019-03-18T21:14:10.564Z,4.68
2019-03-18T21:16:38.555Z,4.64
2019-03-18T21:19:06.506Z,4.63
2019-03-18T21:21:34.696Z,4.67
2019-03-18T21:24:02.746Z,4.63
2019-03-18T21:26:31.814Z,4.55
2019-03-18T21:29:00.051Z,4.52
2019-03-18T21:31:28.381Z,4.45
2019-03-18T21:33:56.264Z,4.35
2019-03-18T21:36:37.061Z,4.39
2019-03-18T21:38:54.401Z,4.40
2019-03-18T21:41:23.482Z,4.38
2019-03-18T21:43:51.434Z,4.39
2019-03-18T21:46:19.577Z,4.45
2019-03-18T21:48:47.733Z,4.52
2019-03-18T21:51:16.244Z,4.46
2019-03-18T21:53:44.511Z,4.41
2019-03-18T21:56:12.819Z,4.37
2019-03-18T21:58:40.944Z,4.29
2019-03-18T22:01:09.210Z,4.21
2019-03-18T22:03:37.088Z,4.21
2019-03-18T22:06:05.321Z,4.20
2019-03-18T22:08:33.224Z,4.23
2019-03-18T22:11:01.637Z,4.25
2019-03-18T22:13:29.457Z,4.28
2019-03-18T22:15:57.686Z,4.29
2019-03-18T22:18:25.620Z,4.20
2019-03-18T22:20:53.677Z,4.14
2019-03-18T22:23:21.684Z,4.07
2019-03-18T22:25:49.734Z,4.13
2019-03-18T22:28:17.753Z,4.13
2019-03-18T22:30:45.824Z,4.14
2019-03-18T22:33:13.931Z,4.13
2019-03-18T22:35:42.228Z,4.10
2019-03-18T22:38:11.412Z,4.12
2019-03-18T22:40:39.593Z,4.14
2019-03-18T22:43:07.462Z,4.18
2019-03-18T22:45:35.366Z,4.19
2019-03-18T22:48:03.401Z,4.20
2019-03-18T22:50:31.421Z,4.14
2019-03-18T22:52:59.380Z,4.11
2019-03-18T22:55:27.374Z,4.11
2019-03-18T22:57:55.399Z,4.04
2019-03-18T23:10:27.797Z,3.95
2019-03-18T23:12:56.045Z,3.97
2019-03-18T23:15:24.234Z,3.90
2019-03-18T23:17:52.514Z,3.92
2019-03-18T23:20:20.494Z,3.85
2019-03-18T23:22:48.654Z,3.83
2019-03-18T23:25:17.001Z,3.80
2019-03-18T23:27:44.932Z,3.89
2019-03-18T23:30:13.162Z,3.83
2019-03-18T23:32:41.235Z,3.83
2019-03-18T23:35:10.288Z,3.76
2019-03-18T23:37:38.286Z,3.82
2019-03-18T23:40:06.216Z,3.92
2019-03-18T23:42:34.338Z,3.93
2019-03-18T23:45:02.265Z,3.83
2019-03-18T23:47:31.543Z,3.74
2019-03-18T23:49:59.525Z,3.70
2019-03-18T23:52:27.449Z,3.62
2019-03-18T23:54:55.571Z,3.48
2019-03-18T23:57:23.661Z,3.44
2019-03-18T23:59:51.514Z,3.37
